sensor_id;sensor_type;location;lat;lon;timestamp;P1;durP1;ratioP1;P2;durP2;ratioP2
7669;SDS011;3877;42.562;27.636;2023-09-12T00:01:03;14.20;;;4.28;;
7669;SDS011;3877;42.562;27.636;2023-09-12T00:03:31;6.25;;;3.67;;
7669;SDS011;3877;42.562;27.636;2023-09-12T00:05:59;6.40;;;3.70;;
7669;SDS011;3877;42.562;27.636;2023-09-12T00:08:29;6.60;;;3.10;;
7669;SDS011;3877;42.562;27.636;2023-09-12T00:11:00;5.95;;;3.38;;
7669;SDS011;3877;42.562;27.636;2023-09-12T00:13:29;5.72;;;3.30;;
7669;SDS011;3877;42.562;27.636;2023-09-12T00:15:57;5.18;;;3.33;;
7669;SDS011;3877;42.562;27.636;2023-09-12T00:18:24;5.25;;;3.30;;
7669;SDS011;3877;42.562;27.636;2023-09-12T00:20:52;6.30;;;3.45;;
7669;SDS011;3877;42.562;27.636;2023-09-12T00:23:20;6.10;;;3.70;;
7669;SDS011;3877;42.562;27.636;2023-09-12T00:25:50;7.15;;;4.00;;
7669;SDS011;3877;42.562;27.636;2023-09-12T00:28:18;4.07;;;3.35;;
7669;SDS011;3877;42.562;27.636;2023-09-12T00:30:45;6.07;;;3.70;;
7669;SDS011;3877;42.562;27.636;2023-09-12T00:33:13;7.07;;;3.95;;
7669;SDS011;3877;42.562;27.636;2023-09-12T00:35:40;5.32;;;3.65;;
7669;SDS011;3877;42.562;27.636;2023-09-12T00:38:08;7.57;;;3.97;;
7669;SDS011;3877;42.562;27.636;2023-09-12T00:40:35;6.15;;;4.00;;
7669;SDS011;3877;42.562;27.636;2023-09-12T00:43:04;4.30;;;3.55;;
7669;SDS011;3877;42.562;27.636;2023-09-12T00:45:31;4.97;;;3.58;;
7669;SDS011;3877;42.562;27.636;2023-09-12T00:47:58;4.65;;;3.58;;
7669;SDS011;3877;42.562;27.636;2023-09-12T00:50:28;4.38;;;3.20;;
7669;SDS011;3877;42.562;27.636;2023-09-12T00:52:56;5.38;;;3.58;;
7669;SDS011;3877;42.562;27.636;2023-09-12T00:55:24;7.50;;;3.88;;
7669;SDS011;3877;42.562;27.636;2023-09-12T00:57:51;5.95;;;3.70;;
7669;SDS011;3877;42.562;27.636;2023-09-12T01:00:21;6.72;;;3.88;;
7669;SDS011;3877;42.562;27.636;2023-09-12T01:02:49;6.45;;;3.78;;
7669;SDS011;3877;42.562;27.636;2023-09-12T01:05:19;5.57;;;4.05;;
7669;SDS011;3877;42.562;27.636;2023-09-12T01:07:48;5.03;;;3.97;;
7669;SDS011;3877;42.562;27.636;2023-09-12T01:10:15;6.63;;;3.88;;
7669;SDS011;3877;42.562;27.636;2023-09-12T01:12:43;5.53;;;4.00;;
7669;SDS011;3877;42.562;27.636;2023-09-12T01:15:11;7.18;;;4.28;;
7669;SDS011;3877;42.562;27.636;2023-09-12T01:17:42;10.23;;;4.53;;
7669;SDS011;3877;42.562;27.636;2023-09-12T01:20:11;8.73;;;4.55;;
7669;SDS011;3877;42.562;27.636;2023-09-12T01:25:42;10.00;;;5.15;;
7669;SDS011;3877;42.562;27.636;2023-09-12T01:28:26;9.85;;;5.07;;
7669;SDS011;3877;42.562;27.636;2023-09-12T01:30:58;9.10;;;4.43;;
7669;SDS011;3877;42.562;27.636;2023-09-12T01:33:28;10.30;;;4.38;;
7669;SDS011;3877;42.562;27.636;2023-09-12T01:35:55;6.28;;;4.00;;
7669;SDS011;3877;42.562;27.636;2023-09-12T01:38:22;8.90;;;4.00;;
7669;SDS011;3877;42.562;27.636;2023-09-12T01:40:50;7.93;;;3.85;;
7669;SDS011;3877;42.562;27.636;2023-09-12T01:43:20;5.18;;;3.70;;
7669;SDS011;3877;42.562;27.636;2023-09-12T01:45:52;8.25;;;3.65;;
7669;SDS011;3877;42.562;27.636;2023-09-12T01:48:21;4.47;;;4.00;;
7669;SDS011;3877;42.562;27.636;2023-09-12T01:50:58;8.20;;;3.97;;
7669;SDS011;3877;42.562;27.636;2023-09-12T01:53:29;9.10;;;4.47;;
7669;SDS011;3877;42.562;27.636;2023-09-12T01:55:59;8.93;;;4.35;;
7669;SDS011;3877;42.562;27.636;2023-09-12T01:58:27;8.30;;;4.07;;
7669;SDS011;3877;42.562;27.636;2023-09-12T02:00:56;7.70;;;4.40;;
7669;SDS011;3877;42.562;27.636;2023-09-12T02:03:24;6.43;;;4.20;;
7669;SDS011;3877;42.562;27.636;2023-09-12T02:05:51;7.07;;;3.80;;
7669;SDS011;3877;42.562;27.636;2023-09-12T02:08:18;5.32;;;3.67;;
7669;SDS011;3877;42.562;27.636;2023-09-12T02:10:45;4.78;;;3.60;;
7669;SDS011;3877;42.562;27.636;2023-09-12T02:13:14;5.80;;;3.67;;
7669;SDS011;3877;42.562;27.636;2023-09-12T02:15:43;12.45;;;3.75;;
7669;SDS011;3877;42.562;27.636;2023-09-12T02:18:11;4.50;;;3.53;;
7669;SDS011;3877;42.562;27.636;2023-09-12T02:20:40;7.57;;;3.65;;
7669;SDS011;3877;42.562;27.636;2023-09-12T02:23:11;5.88;;;3.65;;
7669;SDS011;3877;42.562;27.636;2023-09-12T02:25:38;4.20;;;3.50;;
7669;SDS011;3877;42.562;27.636;2023-09-12T02:28:05;10.13;;;4.35;;
7669;SDS011;3877;42.562;27.636;2023-09-12T02:30:32;11.85;;;4.78;;
7669;SDS011;3877;42.562;27.636;2023-09-12T02:32:59;7.55;;;4.40;;
7669;SDS011;3877;42.562;27.636;2023-09-12T02:35:28;9.15;;;4.28;;
7669;SDS011;3877;42.562;27.636;2023-09-12T02:37:55;8.52;;;4.50;;
7669;SDS011;3877;42.562;27.636;2023-09-12T02:40:23;12.35;;;4.65;;
7669;SDS011;3877;42.562;27.636;2023-09-12T02:42:50;10.88;;;4.68;;
7669;SDS011;3877;42.562;27.636;2023-09-12T02:45:17;8.90;;;4.65;;
7669;SDS011;3877;42.562;27.636;2023-09-12T02:47:44;9.88;;;4.32;;
7669;SDS011;3877;42.562;27.636;2023-09-12T02:50:13;11.65;;;4.63;;
7669;SDS011;3877;42.562;27.636;2023-09-12T02:52:41;10.00;;;4.72;;
7669;SDS011;3877;42.562;27.636;2023-09-12T02:55:08;8.10;;;4.60;;
7669;SDS011;3877;42.562;27.636;2023-09-12T02:57:36;6.88;;;4.10;;
7669;SDS011;3877;42.562;27.636;2023-09-12T03:00:03;7.53;;;4.15;;
7669;SDS011;3877;42.562;27.636;2023-09-12T03:02:33;10.40;;;4.38;;
7669;SDS011;3877;42.562;27.636;2023-09-12T03:05:01;9.68;;;4.97;;
7669;SDS011;3877;42.562;27.636;2023-09-12T03:07:29;14.43;;;5.50;;
7669;SDS011;3877;42.562;27.636;2023-09-12T03:09:58;8.38;;;5.25;;
7669;SDS011;3877;42.562;27.636;2023-09-12T03:12:25;14.70;;;5.53;;
7669;SDS011;3877;42.562;27.636;2023-09-12T03:14:52;10.98;;;5.88;;
7669;SDS011;3877;42.562;27.636;2023-09-12T03:17:19;12.57;;;5.90;;
7669;SDS011;3877;42.562;27.636;2023-09-12T03:19:47;7.35;;;5.13;;
7669;SDS011;3877;42.562;27.636;2023-09-12T03:22:14;10.85;;;5.90;;
7669;SDS011;3877;42.562;27.636;2023-09-12T03:24:41;9.95;;;5.95;;
7669;SDS011;3877;42.562;27.636;2023-09-12T03:27:11;10.60;;;6.10;;
7669;SDS011;3877;42.562;27.636;2023-09-12T03:29:38;9.15;;;5.88;;
7669;SDS011;3877;42.562;27.636;2023-09-12T03:32:06;7.22;;;5.18;;
7669;SDS011;3877;42.562;27.636;2023-09-12T03:34:33;6.65;;;5.07;;
7669;SDS011;3877;42.562;27.636;2023-09-12T03:37:00;10.02;;;5.32;;
7669;SDS011;3877;42.562;27.636;2023-09-12T03:39:28;13.63;;;6.00;;
7669;SDS011;3877;42.562;27.636;2023-09-12T03:41:55;19.27;;;5.53;;
7669;SDS011;3877;42.562;27.636;2023-09-12T03:44:24;10.95;;;4.80;;
7669;SDS011;3877;42.562;27.636;2023-09-12T03:46:51;7.90;;;4.90;;
7669;SDS011;3877;42.562;27.636;2023-09-12T03:49:18;9.07;;;5.40;;
7669;SDS011;3877;42.562;27.636;2023-09-12T03:51:45;7.13;;;4.97;;
7669;SDS011;3877;42.562;27.636;2023-09-12T03:54:12;13.13;;;5.43;;
7669;SDS011;3877;42.562;27.636;2023-09-12T03:56:40;6.20;;;4.80;;
7669;SDS011;3877;42.562;27.636;2023-09-12T03:59:07;8.48;;;4.43;;
7669;SDS011;3877;42.562;27.636;2023-09-12T04:01:36;8.10;;;4.65;;
7669;SDS011;3877;42.562;27.636;2023-09-12T04:04:03;9.75;;;4.95;;
7669;SDS011;3877;42.562;27.636;2023-09-12T04:06:31;9.93;;;5.65;;
7669;SDS011;3877;42.562;27.636;2023-09-12T04:08:59;12.32;;;5.50;;
7669;SDS011;3877;42.562;27.636;2023-09-12T04:13:56;9.45;;;5.65;;
7669;SDS011;3877;42.562;27.636;2023-09-12T04:16:23;8.30;;;5.80;;
7669;SDS011;3877;42.562;27.636;2023-09-12T04:18:52;12.43;;;5.18;;
7669;SDS011;3877;42.562;27.636;2023-09-12T04:21:19;10.15;;;5.97;;
7669;SDS011;3877;42.562;27.636;2023-09-12T04:23:46;7.68;;;5.07;;
7669;SDS011;3877;42.562;27.636;2023-09-12T04:26:15;10.65;;;5.60;;
7669;SDS011;3877;42.562;27.636;2023-09-12T04:28:43;8.07;;;5.47;;
7669;SDS011;3877;42.562;27.636;2023-09-12T04:31:10;8.57;;;4.53;;
7669;SDS011;3877;42.562;27.636;2023-09-12T04:33:37;5.72;;;4.10;;
7669;SDS011;3877;42.562;27.636;2023-09-12T04:36:06;6.00;;;3.90;;
7669;SDS011;3877;42.562;27.636;2023-09-12T04:38:33;6.18;;;3.92;;
7669;SDS011;3877;42.562;27.636;2023-09-12T04:41:02;6.57;;;5.00;;
7669;SDS011;3877;42.562;27.636;2023-09-12T04:43:32;5.20;;;3.63;;
7669;SDS011;3877;42.562;27.636;2023-09-12T04:45:59;4.80;;;3.72;;
7669;SDS011;3877;42.562;27.636;2023-09-12T04:48:26;8.35;;;3.67;;
7669;SDS011;3877;42.562;27.636;2023-09-12T04:50:55;4.85;;;3.53;;
7669;SDS011;3877;42.562;27.636;2023-09-12T04:53:24;5.95;;;3.83;;
7669;SDS011;3877;42.562;27.636;2023-09-12T04:55:51;9.63;;;4.07;;
7669;SDS011;3877;42.562;27.636;2023-09-12T04:58:21;10.15;;;4.40;;
7669;SDS011;3877;42.562;27.636;2023-09-12T05:00:48;10.20;;;4.32;;
7669;SDS011;3877;42.562;27.636;2023-09-12T05:03:16;8.68;;;4.82;;
7669;SDS011;3877;42.562;27.636;2023-09-12T05:05:45;10.18;;;4.97;;
7669;SDS011;3877;42.562;27.636;2023-09-12T05:08:13;8.32;;;4.38;;
7669;SDS011;3877;42.562;27.636;2023-09-12T05:10:43;7.80;;;4.75;;
7669;SDS011;3877;42.562;27.636;2023-09-12T05:13:11;8.05;;;4.53;;
7669;SDS011;3877;42.562;27.636;2023-09-12T05:15:39;4.63;;;4.03;;
7669;SDS011;3877;42.562;27.636;2023-09-12T05:18:07;5.82;;;4.00;;
7669;SDS011;3877;42.562;27.636;2023-09-12T05:20:35;7.63;;;4.50;;
7669;SDS011;3877;42.562;27.636;2023-09-12T05:23:02;9.35;;;4.85;;
7669;SDS011;3877;42.562;27.636;2023-09-12T05:25:30;8.05;;;4.70;;
7669;SDS011;3877;42.562;27.636;2023-09-12T05:27:59;10.30;;;5.07;;
7669;SDS011;3877;42.562;27.636;2023-09-12T05:30:26;9.02;;;4.43;;
7669;SDS011;3877;42.562;27.636;2023-09-12T05:32:53;6.00;;;3.83;;
7669;SDS011;3877;42.562;27.636;2023-09-12T05:35:21;8.88;;;3.40;;
7669;SDS011;3877;42.562;27.636;2023-09-12T05:37:48;22.75;;;4.03;;
7669;SDS011;3877;42.562;27.636;2023-09-12T05:40:15;8.13;;;3.63;;
7669;SDS011;3877;42.562;27.636;2023-09-12T05:42:43;9.38;;;3.80;;
7669;SDS011;3877;42.562;27.636;2023-09-12T05:45:12;4.20;;;3.03;;
7669;SDS011;3877;42.562;27.636;2023-09-12T05:47:40;7.70;;;3.17;;
7669;SDS011;3877;42.562;27.636;2023-09-12T05:50:07;11.35;;;3.00;;
7669;SDS011;3877;42.562;27.636;2023-09-12T05:52:36;8.18;;;3.00;;
7669;SDS011;3877;42.562;27.636;2023-09-12T05:55:04;6.45;;;3.42;;
7669;SDS011;3877;42.562;27.636;2023-09-12T05:57:31;7.90;;;3.60;;
7669;SDS011;3877;42.562;27.636;2023-09-12T05:59:59;8.07;;;3.22;;
7669;SDS011;3877;42.562;27.636;2023-09-12T06:02:28;12.93;;;3.45;;
7669;SDS011;3877;42.562;27.636;2023-09-12T06:04:55;8.55;;;3.60;;
7669;SDS011;3877;42.562;27.636;2023-09-12T06:07:22;10.30;;;3.50;;
7669;SDS011;3877;42.562;27.636;2023-09-12T06:09:50;13.07;;;3.70;;
7669;SDS011;3877;42.562;27.636;2023-09-12T06:12:17;7.95;;;3.50;;
7669;SDS011;3877;42.562;27.636;2023-09-12T06:14:45;8.20;;;4.05;;
7669;SDS011;3877;42.562;27.636;2023-09-12T06:17:12;9.95;;;4.20;;
7669;SDS011;3877;42.562;27.636;2023-09-12T06:19:41;5.80;;;3.40;;
7669;SDS011;3877;42.562;27.636;2023-09-12T06:22:08;8.23;;;3.47;;
7669;SDS011;3877;42.562;27.636;2023-09-12T06:24:36;11.20;;;3.35;;
7669;SDS011;3877;42.562;27.636;2023-09-12T06:27:04;4.65;;;3.38;;
7669;SDS011;3877;42.562;27.636;2023-09-12T06:29:31;7.15;;;3.60;;
7669;SDS011;3877;42.562;27.636;2023-09-12T06:31:58;7.22;;;3.55;;
7669;SDS011;3877;42.562;27.636;2023-09-12T06:34:27;9.95;;;4.03;;
7669;SDS011;3877;42.562;27.636;2023-09-12T06:36:55;5.50;;;3.60;;
7669;SDS011;3877;42.562;27.636;2023-09-12T06:39:23;13.70;;;3.97;;
7669;SDS011;3877;42.562;27.636;2023-09-12T06:41:50;9.88;;;4.03;;
7669;SDS011;3877;42.562;27.636;2023-09-12T06:44:18;7.28;;;3.95;;
7669;SDS011;3877;42.562;27.636;2023-09-12T06:46:45;11.15;;;4.43;;
7669;SDS011;3877;42.562;27.636;2023-09-12T06:49:12;8.82;;;4.10;;
7669;SDS011;3877;42.562;27.636;2023-09-12T06:51:39;9.68;;;4.43;;
7669;SDS011;3877;42.562;27.636;2023-09-12T06:54:08;11.77;;;4.50;;
7669;SDS011;3877;42.562;27.636;2023-09-12T06:56:35;9.73;;;4.18;;
7669;SDS011;3877;42.562;27.636;2023-09-12T06:59:03;8.40;;;3.90;;
7669;SDS011;3877;42.562;27.636;2023-09-12T07:16:40;15.25;;;3.95;;
7669;SDS011;3877;42.562;27.636;2023-09-12T07:19:08;12.13;;;4.05;;
7669;SDS011;3877;42.562;27.636;2023-09-12T07:21:35;4.82;;;4.30;;
7669;SDS011;3877;42.562;27.636;2023-09-12T07:24:02;12.70;;;4.40;;
7669;SDS011;3877;42.562;27.636;2023-09-12T07:26:31;9.13;;;3.97;;
7669;SDS011;3877;42.562;27.636;2023-09-12T07:28:58;6.45;;;4.05;;
7669;SDS011;3877;42.562;27.636;2023-09-12T07:31:28;5.55;;;3.60;;
7669;SDS011;3877;42.562;27.636;2023-09-12T07:33:57;10.60;;;4.15;;
7669;SDS011;3877;42.562;27.636;2023-09-12T07:36:24;5.28;;;4.25;;
7669;SDS011;3877;42.562;27.636;2023-09-12T07:38:51;7.85;;;4.13;;
7669;SDS011;3877;42.562;27.636;2023-09-12T07:41:18;11.77;;;4.60;;
7669;SDS011;3877;42.562;27.636;2023-09-12T07:43:45;7.35;;;4.25;;
7669;SDS011;3877;42.562;27.636;2023-09-12T07:46:13;8.68;;;4.28;;
7669;SDS011;3877;42.562;27.636;2023-09-12T07:48:40;7.70;;;3.80;;
7669;SDS011;3877;42.562;27.636;2023-09-12T07:51:15;8.73;;;4.35;;
7669;SDS011;3877;42.562;27.636;2023-09-12T07:53:42;11.50;;;4.88;;
7669;SDS011;3877;42.562;27.636;2023-09-12T07:56:10;6.97;;;4.20;;
7669;SDS011;3877;42.562;27.636;2023-09-12T07:58:37;6.07;;;4.20;;
7669;SDS011;3877;42.562;27.636;2023-09-12T08:01:04;12.70;;;4.38;;
7669;SDS011;3877;42.562;27.636;2023-09-12T08:03:33;13.57;;;5.18;;
7669;SDS011;3877;42.562;27.636;2023-09-12T08:06:00;10.98;;;4.38;;
7669;SDS011;3877;42.562;27.636;2023-09-12T08:08:29;8.38;;;3.80;;
7669;SDS011;3877;42.562;27.636;2023-09-12T08:10:56;12.30;;;4.68;;
7669;SDS011;3877;42.562;27.636;2023-09-12T08:13:25;5.78;;;3.55;;
7669;SDS011;3877;42.562;27.636;2023-09-12T08:15:53;9.98;;;3.63;;
7669;SDS011;3877;42.562;27.636;2023-09-12T08:18:20;5.85;;;3.97;;
7669;SDS011;3877;42.562;27.636;2023-09-12T08:20:48;5.30;;;3.58;;
7669;SDS011;3877;42.562;27.636;2023-09-12T08:23:15;7.63;;;4.13;;
7669;SDS011;3877;42.562;27.636;2023-09-12T08:25:43;5.90;;;4.00;;
7669;SDS011;3877;42.562;27.636;2023-09-12T08:28:10;7.55;;;3.88;;
7669;SDS011;3877;42.562;27.636;2023-09-12T08:30:38;8.02;;;3.55;;
7669;SDS011;3877;42.562;27.636;2023-09-12T08:33:05;9.00;;;4.30;;
7669;SDS011;3877;42.562;27.636;2023-09-12T08:35:32;11.70;;;3.50;;
7669;SDS011;3877;42.562;27.636;2023-09-12T08:37:59;6.88;;;3.35;;
7669;SDS011;3877;42.562;27.636;2023-09-12T08:40:26;6.65;;;3.53;;
7669;SDS011;3877;42.562;27.636;2023-09-12T08:42:56;9.48;;;3.70;;
7669;SDS011;3877;42.562;27.636;2023-09-12T08:45:24;7.28;;;3.20;;
7669;SDS011;3877;42.562;27.636;2023-09-12T08:47:54;6.43;;;3.58;;
7669;SDS011;3877;42.562;27.636;2023-09-12T08:50:23;7.07;;;3.78;;
7669;SDS011;3877;42.562;27.636;2023-09-12T08:52:52;5.35;;;3.17;;
7669;SDS011;3877;42.562;27.636;2023-09-12T08:55:19;9.30;;;3.42;;
7669;SDS011;3877;42.562;27.636;2023-09-12T08:57:47;6.47;;;3.00;;
7669;SDS011;3877;42.562;27.636;2023-09-12T09:00:18;6.40;;;3.22;;
7669;SDS011;3877;42.562;27.636;2023-09-12T09:02:47;8.18;;;4.03;;
7669;SDS011;3877;42.562;27.636;2023-09-12T09:05:16;3.65;;;2.72;;
7669;SDS011;3877;42.562;27.636;2023-09-12T09:07:44;6.68;;;3.40;;
7669;SDS011;3877;42.562;27.636;2023-09-12T09:10:13;4.57;;;2.78;;
7669;SDS011;3877;42.562;27.636;2023-09-12T09:12:42;4.97;;;2.88;;
7669;SDS011;3877;42.562;27.636;2023-09-12T09:15:21;4.97;;;2.88;;
7669;SDS011;3877;42.562;27.636;2023-09-12T09:17:51;8.35;;;3.00;;
7669;SDS011;3877;42.562;27.636;2023-09-12T09:20:22;5.85;;;3.10;;
7669;SDS011;3877;42.562;27.636;2023-09-12T09:22:56;6.68;;;2.80;;
7669;SDS011;3877;42.562;27.636;2023-09-12T09:25:25;7.32;;;2.85;;
7669;SDS011;3877;42.562;27.636;2023-09-12T09:39:31;5.13;;;2.97;;
7669;SDS011;3877;42.562;27.636;2023-09-12T09:41:59;4.75;;;3.05;;
7669;SDS011;3877;42.562;27.636;2023-09-12T09:44:26;6.70;;;3.70;;
7669;SDS011;3877;42.562;27.636;2023-09-12T09:46:58;12.43;;;3.90;;
7669;SDS011;3877;42.562;27.636;2023-09-12T09:49:27;7.15;;;3.20;;
7669;SDS011;3877;42.562;27.636;2023-09-12T09:51:59;5.57;;;2.75;;
7669;SDS011;3877;42.562;27.636;2023-09-12T09:54:32;4.40;;;2.75;;
7669;SDS011;3877;42.562;27.636;2023-09-12T09:56:59;5.93;;;3.20;;
7669;SDS011;3877;42.562;27.636;2023-09-12T09:59:26;6.07;;;3.00;;
7669;SDS011;3877;42.562;27.636;2023-09-12T10:01:55;5.70;;;2.78;;
7669;SDS011;3877;42.562;27.636;2023-09-12T10:04:23;6.57;;;2.88;;
7669;SDS011;3877;42.562;27.636;2023-09-12T10:06:54;4.07;;;2.42;;
7669;SDS011;3877;42.562;27.636;2023-09-12T10:09:25;3.90;;;2.78;;
7669;SDS011;3877;42.562;27.636;2023-09-12T10:11:55;2.75;;;2.55;;
7669;SDS011;3877;42.562;27.636;2023-09-12T10:14:24;3.67;;;2.33;;
7669;SDS011;3877;42.562;27.636;2023-09-12T10:16:57;6.50;;;2.92;;
7669;SDS011;3877;42.562;27.636;2023-09-12T10:19:30;2.78;;;2.40;;
7669;SDS011;3877;42.562;27.636;2023-09-12T10:22:03;6.20;;;2.80;;
7669;SDS011;3877;42.562;27.636;2023-09-12T10:24:35;5.95;;;3.00;;
7669;SDS011;3877;42.562;27.636;2023-09-12T10:27:05;5.00;;;2.50;;
7669;SDS011;3877;42.562;27.636;2023-09-12T10:29:33;4.15;;;2.60;;
7669;SDS011;3877;42.562;27.636;2023-09-12T10:32:01;3.85;;;2.80;;
7669;SDS011;3877;42.562;27.636;2023-09-12T10:34:29;5.70;;;2.85;;
7669;SDS011;3877;42.562;27.636;2023-09-12T10:36:58;4.68;;;2.95;;
7669;SDS011;3877;42.562;27.636;2023-09-12T10:39:27;4.25;;;2.70;;
7669;SDS011;3877;42.562;27.636;2023-09-12T10:41:56;3.92;;;2.70;;
7669;SDS011;3877;42.562;27.636;2023-09-12T10:44:26;6.15;;;3.22;;
7669;SDS011;3877;42.562;27.636;2023-09-12T10:46:55;3.67;;;2.40;;
7669;SDS011;3877;42.562;27.636;2023-09-12T10:49:22;6.28;;;2.72;;
7669;SDS011;3877;42.562;27.636;2023-09-12T10:51:50;4.72;;;2.80;;
7669;SDS011;3877;42.562;27.636;2023-09-12T10:54:23;4.20;;;2.95;;
7669;SDS011;3877;42.562;27.636;2023-09-12T10:57:01;4.35;;;2.90;;
7669;SDS011;3877;42.562;27.636;2023-09-12T10:59:31;4.65;;;2.55;;
7669;SDS011;3877;42.562;27.636;2023-09-12T11:04:55;8.20;;;2.88;;
7669;SDS011;3877;42.562;27.636;2023-09-12T11:07:32;4.70;;;2.63;;
7669;SDS011;3877;42.562;27.636;2023-09-12T11:10:16;6.13;;;2.90;;
7669;SDS011;3877;42.562;27.636;2023-09-12T11:12:45;4.10;;;2.80;;
7669;SDS011;3877;42.562;27.636;2023-09-12T11:15:15;4.80;;;2.35;;
7669;SDS011;3877;42.562;27.636;2023-09-12T11:17:43;5.13;;;2.92;;
7669;SDS011;3877;42.562;27.636;2023-09-12T11:20:11;5.18;;;2.58;;
7669;SDS011;3877;42.562;27.636;2023-09-12T11:22:40;3.65;;;2.60;;
7669;SDS011;3877;42.562;27.636;2023-09-12T11:25:15;4.90;;;2.50;;
7669;SDS011;3877;42.562;27.636;2023-09-12T11:27:45;4.60;;;2.50;;
7669;SDS011;3877;42.562;27.636;2023-09-12T11:30:30;7.40;;;2.70;;
7669;SDS011;3877;42.562;27.636;2023-09-12T11:32:57;6.55;;;3.33;;
7669;SDS011;3877;42.562;27.636;2023-09-12T11:35:26;3.67;;;2.67;;
7669;SDS011;3877;42.562;27.636;2023-09-12T11:37:55;9.20;;;2.60;;
7669;SDS011;3877;42.562;27.636;2023-09-12T11:40:25;6.40;;;2.65;;
7669;SDS011;3877;42.562;27.636;2023-09-12T11:43:07;8.35;;;2.50;;
7669;SDS011;3877;42.562;27.636;2023-09-12T11:45:45;5.95;;;2.60;;
7669;SDS011;3877;42.562;27.636;2023-09-12T11:48:13;3.85;;;2.80;;
7669;SDS011;3877;42.562;27.636;2023-09-12T11:50:41;9.88;;;2.90;;
7669;SDS011;3877;42.562;27.636;2023-09-12T11:53:08;2.55;;;2.30;;
7669;SDS011;3877;42.562;27.636;2023-09-12T11:55:37;4.70;;;2.80;;
7669;SDS011;3877;42.562;27.636;2023-09-12T11:58:09;4.85;;;2.60;;
7669;SDS011;3877;42.562;27.636;2023-09-12T12:00:37;3.78;;;2.30;;
7669;SDS011;3877;42.562;27.636;2023-09-12T12:03:10;3.35;;;2.58;;
7669;SDS011;3877;42.562;27.636;2023-09-12T12:05:37;4.47;;;2.53;;
7669;SDS011;3877;42.562;27.636;2023-09-12T12:08:06;3.40;;;2.47;;
7669;SDS011;3877;42.562;27.636;2023-09-12T12:10:34;2.50;;;2.30;;
7669;SDS011;3877;42.562;27.636;2023-09-12T12:13:01;5.40;;;2.60;;
7669;SDS011;3877;42.562;27.636;2023-09-12T12:15:28;4.20;;;2.65;;
7669;SDS011;3877;42.562;27.636;2023-09-12T12:17:55;2.80;;;2.28;;
7669;SDS011;3877;42.562;27.636;2023-09-12T12:20:25;4.03;;;2.22;;
7669;SDS011;3877;42.562;27.636;2023-09-12T12:22:54;2.60;;;2.30;;
7669;SDS011;3877;42.562;27.636;2023-09-12T12:25:21;5.57;;;2.47;;
7669;SDS011;3877;42.562;27.636;2023-09-12T12:27:50;5.82;;;2.28;;
7669;SDS011;3877;42.562;27.636;2023-09-12T12:30:17;3.78;;;2.50;;
7669;SDS011;3877;42.562;27.636;2023-09-12T12:32:45;3.60;;;2.20;;
7669;SDS011;3877;42.562;27.636;2023-09-12T12:35:17;4.43;;;2.50;;
7669;SDS011;3877;42.562;27.636;2023-09-12T12:37:47;2.88;;;2.10;;
7669;SDS011;3877;42.562;27.636;2023-09-12T12:40:15;4.35;;;2.20;;
7669;SDS011;3877;42.562;27.636;2023-09-12T12:42:43;3.25;;;2.17;;
7669;SDS011;3877;42.562;27.636;2023-09-12T12:45:11;4.25;;;2.20;;
7669;SDS011;3877;42.562;27.636;2023-09-12T12:47:39;4.15;;;2.10;;
7669;SDS011;3877;42.562;27.636;2023-09-12T12:50:07;5.07;;;2.17;;
7669;SDS011;3877;42.562;27.636;2023-09-12T12:52:36;3.38;;;2.17;;
7669;SDS011;3877;42.562;27.636;2023-09-12T12:55:06;4.80;;;2.22;;
7669;SDS011;3877;42.562;27.636;2023-09-12T12:57:36;3.88;;;2.35;;
7669;SDS011;3877;42.562;27.636;2023-09-12T13:00:07;3.65;;;2.28;;
7669;SDS011;3877;42.562;27.636;2023-09-12T13:02:36;5.93;;;2.33;;
7669;SDS011;3877;42.562;27.636;2023-09-12T13:05:03;4.15;;;2.20;;
7669;SDS011;3877;42.562;27.636;2023-09-12T13:07:33;5.43;;;2.40;;
7669;SDS011;3877;42.562;27.636;2023-09-12T13:10:00;3.80;;;2.33;;
7669;SDS011;3877;42.562;27.636;2023-09-12T13:12:31;4.22;;;1.98;;
7669;SDS011;3877;42.562;27.636;2023-09-12T13:14:58;3.45;;;2.30;;
7669;SDS011;3877;42.562;27.636;2023-09-12T13:17:25;4.30;;;2.15;;
7669;SDS011;3877;42.562;27.636;2023-09-12T13:19:52;7.43;;;2.30;;
7669;SDS011;3877;42.562;27.636;2023-09-12T13:22:20;3.30;;;2.33;;
7669;SDS011;3877;42.562;27.636;2023-09-12T13:24:47;2.30;;;2.10;;
7669;SDS011;3877;42.562;27.636;2023-09-12T13:27:14;4.60;;;2.17;;
7669;SDS011;3877;42.562;27.636;2023-09-12T13:29:43;2.97;;;2.00;;
7669;SDS011;3877;42.562;27.636;2023-09-12T13:32:10;2.78;;;2.40;;
7669;SDS011;3877;42.562;27.636;2023-09-12T13:34:40;3.42;;;2.17;;
7669;SDS011;3877;42.562;27.636;2023-09-12T13:37:08;3.88;;;2.50;;
7669;SDS011;3877;42.562;27.636;2023-09-12T13:39:35;6.05;;;2.50;;
7669;SDS011;3877;42.562;27.636;2023-09-12T13:42:02;3.70;;;2.47;;
7669;SDS011;3877;42.562;27.636;2023-09-12T13:44:33;2.50;;;2.10;;
7669;SDS011;3877;42.562;27.636;2023-09-12T13:47:02;4.22;;;2.95;;
7669;SDS011;3877;42.562;27.636;2023-09-12T13:49:29;4.65;;;2.50;;
7669;SDS011;3877;42.562;27.636;2023-09-12T13:51:56;5.45;;;2.60;;
7669;SDS011;3877;42.562;27.636;2023-09-12T13:54:23;4.90;;;2.72;;
7669;SDS011;3877;42.562;27.636;2023-09-12T13:56:50;4.60;;;2.70;;
7669;SDS011;3877;42.562;27.636;2023-09-12T13:59:18;5.97;;;2.22;;
7669;SDS011;3877;42.562;27.636;2023-09-12T14:01:46;4.32;;;2.22;;
7669;SDS011;3877;42.562;27.636;2023-09-12T14:04:14;3.17;;;2.53;;
7669;SDS011;3877;42.562;27.636;2023-09-12T14:06:42;3.55;;;2.58;;
7669;SDS011;3877;42.562;27.636;2023-09-12T14:09:10;5.60;;;2.30;;
7669;SDS011;3877;42.562;27.636;2023-09-12T14:11:37;4.50;;;2.38;;
7669;SDS011;3877;42.562;27.636;2023-09-12T14:14:05;3.80;;;2.40;;
7669;SDS011;3877;42.562;27.636;2023-09-12T14:16:32;4.25;;;2.60;;
7669;SDS011;3877;42.562;27.636;2023-09-12T14:18:59;3.80;;;2.70;;
7669;SDS011;3877;42.562;27.636;2023-09-12T14:21:28;2.78;;;2.50;;
7669;SDS011;3877;42.562;27.636;2023-09-12T14:23:56;2.92;;;2.35;;
7669;SDS011;3877;42.562;27.636;2023-09-12T14:26:24;6.07;;;2.55;;
7669;SDS011;3877;42.562;27.636;2023-09-12T14:28:51;4.03;;;2.28;;
7669;SDS011;3877;42.562;27.636;2023-09-12T14:31:18;5.40;;;2.58;;
7669;SDS011;3877;42.562;27.636;2023-09-12T14:33:45;4.70;;;2.65;;
7669;SDS011;3877;42.562;27.636;2023-09-12T14:36:12;9.27;;;2.50;;
7669;SDS011;3877;42.562;27.636;2023-09-12T14:38:41;6.68;;;2.85;;
7669;SDS011;3877;42.562;27.636;2023-09-12T14:41:11;4.57;;;2.75;;
7669;SDS011;3877;42.562;27.636;2023-09-12T14:43:39;5.10;;;2.63;;
7669;SDS011;3877;42.562;27.636;2023-09-12T14:46:06;4.60;;;2.63;;
7669;SDS011;3877;42.562;27.636;2023-09-12T14:48:34;2.90;;;2.40;;
7669;SDS011;3877;42.562;27.636;2023-09-12T14:51:01;4.93;;;2.60;;
7669;SDS011;3877;42.562;27.636;2023-09-12T14:53:28;6.10;;;2.38;;
7669;SDS011;3877;42.562;27.636;2023-09-12T14:55:58;5.50;;;3.00;;
7669;SDS011;3877;42.562;27.636;2023-09-12T14:58:25;3.35;;;2.72;;
7669;SDS011;3877;42.562;27.636;2023-09-12T15:00:53;3.38;;;2.70;;
7669;SDS011;3877;42.562;27.636;2023-09-12T15:03:20;3.42;;;2.42;;
7669;SDS011;3877;42.562;27.636;2023-09-12T15:05:47;4.03;;;2.40;;
7669;SDS011;3877;42.562;27.636;2023-09-12T15:08:15;4.60;;;2.92;;
7669;SDS011;3877;42.562;27.636;2023-09-12T15:10:42;4.65;;;2.80;;
7669;SDS011;3877;42.562;27.636;2023-09-12T15:13:10;7.20;;;2.65;;
7669;SDS011;3877;42.562;27.636;2023-09-12T15:15:39;3.50;;;2.75;;
7669;SDS011;3877;42.562;27.636;2023-09-12T15:18:06;4.63;;;2.78;;
7669;SDS011;3877;42.562;27.636;2023-09-12T15:20:34;3.03;;;2.63;;
7669;SDS011;3877;42.562;27.636;2023-09-12T15:23:01;5.57;;;2.83;;
7669;SDS011;3877;42.562;27.636;2023-09-12T15:25:30;3.13;;;2.75;;
7669;SDS011;3877;42.562;27.636;2023-09-12T15:27:57;4.55;;;2.70;;
7669;SDS011;3877;42.562;27.636;2023-09-12T15:30:26;5.15;;;3.10;;
7669;SDS011;3877;42.562;27.636;2023-09-12T15:32:53;5.90;;;3.10;;
7669;SDS011;3877;42.562;27.636;2023-09-12T15:35:21;4.82;;;2.92;;
7669;SDS011;3877;42.562;27.636;2023-09-12T15:37:48;3.70;;;2.55;;
7669;SDS011;3877;42.562;27.636;2023-09-12T15:40:16;6.57;;;2.85;;
7669;SDS011;3877;42.562;27.636;2023-09-12T15:42:43;3.03;;;2.60;;